Time,TemperatureF,DewpointF,PressureIn,WindDirection,WindDirectionDegrees,WindSpeedMPH,WindSpeedGustMPH,Humidity,HourlyPrecipIn,Conditions,Clouds,dailyrainin,SoftwareType,DateUTC
2013-07-13 00:22:00,60.0,49.0,-100.00,East,92,6.0,9.0,68,0.00,,,-99.99,,2013-07-13 06:22:00,
2013-07-13 00:43:00,61.0,49.0,-100.00,ESE,114,6.0,11.0,63,0.00,,,-99.99,,2013-07-13 06:43:00,
2013-07-13 01:44:00,60.0,49.0,-100.00,ESE,117,7.0,12.0,65,0.00,,,-99.99,,2013-07-13 07:44:00,
2013-07-13 02:01:00,60.0,48.0,-100.00,ESE,112,9.0,12.0,66,0.00,,,-99.99,,2013-07-13 08:01:00,
2013-07-13 02:43:00,60.0,48.0,-100.00,ESE,110,12.0,16.0,65,0.00,,,-99.99,,2013-07-13 08:43:00,
2013-07-13 03:42:00,60.0,48.0,-100.00,ESE,121,9.0,12.0,65,0.00,,,-99.99,,2013-07-13 09:42:00,
2013-07-13 04:01:00,59.0,48.0,-100.00,South,172,4.0,7.0,67,0.00,,,-99.99,,2013-07-13 10:01:00,
2013-07-13 04:52:00,59.0,48.0,-100.00,SE,133,2.0,3.0,66,0.00,,,-99.99,,2013-07-13 10:52:00,
2013-07-13 05:42:00,58.0,48.0,-100.00,ESE,103,4.0,6.0,69,0.00,,,-99.99,,2013-07-13 11:42:00,
2013-07-13 05:52:00,58.0,48.0,-100.00,ESE,116,3.0,6.0,69,0.00,,,-99.99,,2013-07-13 11:52:00,
2013-07-13 06:02:00,58.0,48.0,-100.00,ESE,107,3.0,5.0,68,0.00,,,-99.99,,2013-07-13 12:02:00,
2013-07-13 06:43:00,59.0,48.0,-100.00,East,90,7.0,9.0,66,0.00,,,-99.99,,2013-07-13 12:43:00,
2013-07-13 08:43:00,65.0,50.0,-100.00,SSE,168,11.0,14.0,58,0.00,,,-99.99,,2013-07-13 14:43:00,
2013-07-13 09:02:00,65.0,50.0,-100.00,South,178,11.0,15.0,58,0.00,,,-99.99,,2013-07-13 15:02:00,
2013-07-13 09:43:00,65.0,50.0,-100.00,SSE,167,12.0,15.0,59,0.00,,,-99.99,,2013-07-13 15:43:00,
2013-07-13 10:02:00,66.0,51.0,-100.00,SSE,168,11.0,14.0,58,0.00,,,-99.99,,2013-07-13 16:02:00,
2013-07-13 10:43:00,68.0,50.0,-100.00,South,172,12.0,17.0,53,0.00,,,-99.99,,2013-07-13 16:43:00,
2013-07-13 11:01:00,68.0,49.0,-100.00,South,172,14.0,21.0,51,0.00,,,-99.99,,2013-07-13 17:01:00,
2013-07-13 11:42:00,70.0,49.0,-100.00,South,191,14.0,20.0,48,0.00,,,-99.99,,2013-07-13 17:42:00,
2013-07-13 12:43:00,72.0,49.0,-100.00,South,175,13.0,21.0,44,0.00,,,-99.99,,2013-07-13 18:43:00,
2013-07-13 13:02:00,74.0,49.0,-100.00,South,184,17.0,24.0,41,0.00,,,-99.99,,2013-07-13 19:02:00,
2013-07-13 13:44:00,69.0,52.0,-100.00,South,175,24.0,32.0,55,0.00,,,-99.99,,2013-07-13 19:44:00,
2013-07-13 14:33:00,70.0,50.0,-100.00,SSE,165,16.0,21.0,49,0.00,,,-99.99,,2013-07-13 20:33:00,
2013-07-13 14:42:00,71.0,50.0,-100.00,SSE,168,16.0,24.0,47,0.00,,,-99.99,,2013-07-13 20:42:00,
2013-07-13 15:02:00,73.0,49.0,-100.00,South,176,16.0,22.0,42,0.00,,,-99.99,,2013-07-13 21:02:00,
2013-07-13 15:42:00,75.0,49.0,-100.00,South,185,19.0,27.0,39,0.00,,,-99.99,,2013-07-13 21:42:00,
2013-07-13 16:43:00,77.0,46.0,-100.00,South,185,19.0,26.0,33,0.00,,,-99.99,,2013-07-13 22:43:00,
2013-07-13 17:42:00,73.0,49.0,-100.00,WSW,248,14.0,22.0,43,0.00,,,-99.99,,2013-07-13 23:42:00,
2013-07-13 18:42:00,71.0,50.0,-100.00,ESE,119,4.0,8.0,47,0.00,,,-99.99,,2013-07-14 00:42:00,
2013-07-13 19:32:00,64.0,50.0,-100.00,WSW,256,18.0,25.0,61,0.00,,,-99.99,,2013-07-14 01:32:00,
2013-07-13 19:43:00,63.0,50.0,-100.00,West,263,14.0,21.0,62,0.00,,,-99.99,,2013-07-14 01:43:00,
2013-07-13 19:50:00,63.0,49.0,-100.00,WNW,296,6.0,9.0,60,0.00,,,-99.99,,2013-07-14 01:50:00,
2013-07-13 20:01:00,63.0,49.0,-100.00,West,272,6.0,9.0,59,0.00,,,-99.99,,2013-07-14 02:01:00,
2013-07-13 20:11:00,63.0,49.0,-100.00,WNW,296,6.0,9.0,60,0.00,,,-99.99,,2013-07-14 02:11:00,
2013-07-13 20:22:00,63.0,49.0,-100.00,WNW,296,6.0,9.0,60,0.00,,,-99.99,,2013-07-14 02:22:00,
2013-07-13 20:32:00,63.0,49.0,-100.00,WNW,296,6.0,9.0,60,0.00,,,-99.99,,2013-07-14 02:32:00,
2013-07-13 20:43:00,63.0,49.0,-100.00,WNW,296,6.0,9.0,60,0.00,,,-99.99,,2013-07-14 02:43:00,